sensor_id;sensor_type;location;lat;lon;timestamp;pressure;altitude;pressure_sealevel;temperature;humidity
8573;BME280;4324;42.012;24.872;2023-04-08T00:01:32;99135.56;;;9.47;59.27
8573;BME280;4324;42.012;24.872;2023-04-08T00:03:59;99140.03;;;9.47;59.30
8573;BME280;4324;42.012;24.872;2023-04-08T00:06:26;99119.13;;;9.35;59.14
8573;BME280;4324;42.012;24.872;2023-04-08T00:08:53;99132.22;;;9.45;59.32
8573;BME280;4324;42.012;24.872;2023-04-08T00:11:21;99145.84;;;9.50;59.30
8573;BME280;4324;42.012;24.872;2023-04-08T00:13:48;99133.53;;;9.41;59.53
8573;BME280;4324;42.012;24.872;2023-04-08T00:16:15;99152.47;;;9.54;59.50
8573;BME280;4324;42.012;24.872;2023-04-08T00:18:41;99133.91;;;9.46;59.39
8573;BME280;4324;42.012;24.872;2023-04-08T00:21:08;99120.31;;;9.41;59.35
8573;BME280;4324;42.012;24.872;2023-04-08T00:23:35;99120.00;;;9.44;59.30
8573;BME280;4324;42.012;24.872;2023-04-08T00:26:02;99126.34;;;9.51;59.33
8573;BME280;4324;42.012;24.872;2023-04-08T00:28:30;99154.38;;;9.70;59.20
8573;BME280;4324;42.012;24.872;2023-04-08T00:30:57;99145.91;;;9.66;59.06
8573;BME280;4324;42.012;24.872;2023-04-08T00:33:24;99132.66;;;9.58;59.15
8573;BME280;4324;42.012;24.872;2023-04-08T00:35:51;99119.69;;;9.47;59.30
8573;BME280;4324;42.012;24.872;2023-04-08T00:38:18;99102.06;;;9.30;59.07
8573;BME280;4324;42.012;24.872;2023-04-08T00:40:45;99159.44;;;9.63;59.35
8573;BME280;4324;42.012;24.872;2023-04-08T00:43:11;99114.00;;;9.34;59.35
8573;BME280;4324;42.012;24.872;2023-04-08T00:45:42;99159.91;;;9.59;59.36
8573;BME280;4324;42.012;24.872;2023-04-08T00:48:09;99111.81;;;9.29;59.62
8573;BME280;4324;42.012;24.872;2023-04-08T00:50:36;99148.47;;;9.50;59.59
8573;BME280;4324;42.012;24.872;2023-04-08T00:53:03;99143.97;;;9.42;59.65
8573;BME280;4324;42.012;24.872;2023-04-08T00:55:29;99158.88;;;9.52;59.64
8573;BME280;4324;42.012;24.872;2023-04-08T00:57:57;99159.56;;;9.54;59.90
8573;BME280;4324;42.012;24.872;2023-04-08T01:00:24;99127.03;;;9.27;59.97
8573;BME280;4324;42.012;24.872;2023-04-08T01:02:59;99165.16;;;9.51;59.95
8573;BME280;4324;42.012;24.872;2023-04-08T01:05:39;99161.53;;;9.52;59.89
8573;BME280;4324;42.012;24.872;2023-04-08T01:08:10;99167.44;;;9.45;60.10
8573;BME280;4324;42.012;24.872;2023-04-08T01:10:40;99162.31;;;9.44;59.66
8573;BME280;4324;42.012;24.872;2023-04-08T01:13:11;99164.94;;;9.44;60.09
8573;BME280;4324;42.012;24.872;2023-04-08T01:15:41;99157.94;;;9.35;60.30
8573;BME280;4324;42.012;24.872;2023-04-08T01:18:12;99134.72;;;9.20;60.63
8573;BME280;4324;42.012;24.872;2023-04-08T01:20:41;99182.97;;;9.49;60.68
8573;BME280;4324;42.012;24.872;2023-04-08T01:23:14;99172.34;;;9.40;60.81
8573;BME280;4324;42.012;24.872;2023-04-08T01:25:46;99152.16;;;9.31;61.05
8573;BME280;4324;42.012;24.872;2023-04-08T01:28:16;99159.09;;;9.32;61.23
8573;BME280;4324;42.012;24.872;2023-04-08T01:30:45;99179.50;;;9.48;61.40
8573;BME280;4324;42.012;24.872;2023-04-08T01:33:16;99168.28;;;9.46;61.53
8573;BME280;4324;42.012;24.872;2023-04-08T01:35:43;99169.56;;;9.42;61.71
8573;BME280;4324;42.012;24.872;2023-04-08T01:38:15;99131.25;;;9.20;61.78
8573;BME280;4324;42.012;24.872;2023-04-08T01:40:43;99166.06;;;9.41;61.86
8573;BME280;4324;42.012;24.872;2023-04-08T01:43:15;99152.97;;;9.32;62.15
8573;BME280;4324;42.012;24.872;2023-04-08T01:45:43;99144.53;;;9.28;62.20
8573;BME280;4324;42.012;24.872;2023-04-08T01:48:12;99156.13;;;9.35;62.14
8573;BME280;4324;42.012;24.872;2023-04-08T01:50:40;99144.66;;;9.27;62.31
8573;BME280;4324;42.012;24.872;2023-04-08T01:53:08;99167.84;;;9.33;62.36
8573;BME280;4324;42.012;24.872;2023-04-08T01:55:36;99151.47;;;9.11;62.35
8573;BME280;4324;42.012;24.872;2023-04-08T01:58:04;99170.66;;;9.13;62.64
8573;BME280;4324;42.012;24.872;2023-04-08T02:00:35;99187.56;;;9.20;62.47
8573;BME280;4324;42.012;24.872;2023-04-08T02:03:05;99194.19;;;9.25;62.51
8573;BME280;4324;42.012;24.872;2023-04-08T02:05:32;99158.75;;;9.09;62.60
8573;BME280;4324;42.012;24.872;2023-04-08T02:07:59;99135.50;;;8.95;62.63
8573;BME280;4324;42.012;24.872;2023-04-08T02:10:26;99152.13;;;9.05;62.73
8573;BME280;4324;42.012;24.872;2023-04-08T02:12:54;99172.09;;;9.08;63.01
8573;BME280;4324;42.012;24.872;2023-04-08T02:15:21;99188.16;;;9.14;63.11
8573;BME280;4324;42.012;24.872;2023-04-08T02:17:53;99171.13;;;9.09;63.01
8573;BME280;4324;42.012;24.872;2023-04-08T02:20:23;99183.34;;;9.10;63.32
8573;BME280;4324;42.012;24.872;2023-04-08T02:22:57;99194.38;;;9.05;63.58
8573;BME280;4324;42.012;24.872;2023-04-08T02:25:28;99189.09;;;9.05;63.69
8573;BME280;4324;42.012;24.872;2023-04-08T02:27:56;99193.69;;;9.03;63.60
8573;BME280;4324;42.012;24.872;2023-04-08T02:30:27;99199.66;;;9.05;63.92
8573;BME280;4324;42.012;24.872;2023-04-08T02:32:57;99161.56;;;8.90;63.92
8573;BME280;4324;42.012;24.872;2023-04-08T02:35:25;99192.41;;;9.07;64.16
8573;BME280;4324;42.012;24.872;2023-04-08T02:37:53;99176.94;;;8.94;64.16
8573;BME280;4324;42.012;24.872;2023-04-08T02:40:24;99147.19;;;8.75;64.32
8573;BME280;4324;42.012;24.872;2023-04-08T02:42:52;99140.56;;;8.70;64.31
8573;BME280;4324;42.012;24.872;2023-04-08T02:45:19;99191.34;;;9.00;64.58
8573;BME280;4324;42.012;24.872;2023-04-08T02:47:46;99167.66;;;8.90;64.74
8573;BME280;4324;42.012;24.872;2023-04-08T02:50:14;99184.09;;;9.02;64.70
8573;BME280;4324;42.012;24.872;2023-04-08T02:52:41;99166.16;;;8.88;64.84
8573;BME280;4324;42.012;24.872;2023-04-08T02:55:09;99191.88;;;9.04;64.92
8573;BME280;4324;42.012;24.872;2023-04-08T02:57:38;99202.44;;;9.04;65.20
8573;BME280;4324;42.012;24.872;2023-04-08T03:00:06;99190.50;;;9.00;65.14
8573;BME280;4324;42.012;24.872;2023-04-08T03:02:33;99199.66;;;9.05;65.40
8573;BME280;4324;42.012;24.872;2023-04-08T03:05:01;99158.44;;;8.77;65.31
8573;BME280;4324;42.012;24.872;2023-04-08T03:07:30;99211.28;;;9.12;65.55
8573;BME280;4324;42.012;24.872;2023-04-08T03:09:57;99209.59;;;9.11;65.30
8573;BME280;4324;42.012;24.872;2023-04-08T03:12:24;99198.66;;;9.06;65.54
8573;BME280;4324;42.012;24.872;2023-04-08T03:14:52;99175.72;;;8.89;65.63
8573;BME280;4324;42.012;24.872;2023-04-08T03:17:19;99215.19;;;9.08;65.67
8573;BME280;4324;42.012;24.872;2023-04-08T03:19:46;99218.69;;;9.09;65.83
8573;BME280;4324;42.012;24.872;2023-04-08T03:22:13;99209.59;;;9.11;66.04
8573;BME280;4324;42.012;24.872;2023-04-08T03:24:41;99201.59;;;9.03;65.89
8573;BME280;4324;42.012;24.872;2023-04-08T03:27:08;99221.84;;;9.12;66.02
8573;BME280;4324;42.012;24.872;2023-04-08T03:29:35;99223.78;;;9.10;66.03
8573;BME280;4324;42.012;24.872;2023-04-08T03:32:01;99214.22;;;9.09;65.87
8573;BME280;4324;42.012;24.872;2023-04-08T03:34:28;99217.16;;;9.06;66.04
8573;BME280;4324;42.012;24.872;2023-04-08T03:36:56;99209.81;;;9.00;66.14
8573;BME280;4324;42.012;24.872;2023-04-08T03:39:22;99205.81;;;8.96;66.19
8573;BME280;4324;42.012;24.872;2023-04-08T03:41:51;99215.34;;;9.07;66.17
8573;BME280;4324;42.012;24.872;2023-04-08T03:44:19;99210.81;;;8.99;66.21
8573;BME280;4324;42.012;24.872;2023-04-08T03:46:45;99221.44;;;9.07;66.13
8573;BME280;4324;42.012;24.872;2023-04-08T03:49:13;99214.97;;;9.02;66.15
8573;BME280;4324;42.012;24.872;2023-04-08T03:51:40;99225.75;;;9.08;66.12
8573;BME280;4324;42.012;24.872;2023-04-08T03:54:06;99212.75;;;8.97;66.23
8573;BME280;4324;42.012;24.872;2023-04-08T03:56:33;99228.09;;;9.11;66.17
8573;BME280;4324;42.012;24.872;2023-04-08T03:59:02;99225.91;;;9.07;66.19
8573;BME280;4324;42.012;24.872;2023-04-08T04:01:29;99226.72;;;9.07;66.21
8573;BME280;4324;42.012;24.872;2023-04-08T04:03:56;99226.06;;;9.05;66.41
8573;BME280;4324;42.012;24.872;2023-04-08T04:06:23;99230.50;;;9.05;66.50
8573;BME280;4324;42.012;24.872;2023-04-08T04:08:52;99210.75;;;8.91;66.20
8573;BME280;4324;42.012;24.872;2023-04-08T04:11:19;99200.75;;;8.85;66.04
8573;BME280;4324;42.012;24.872;2023-04-08T04:13:47;99234.38;;;9.10;66.18
8573;BME280;4324;42.012;24.872;2023-04-08T04:16:15;99239.47;;;9.12;66.29
8573;BME280;4324;42.012;24.872;2023-04-08T04:18:42;99236.84;;;9.12;66.18
8573;BME280;4324;42.012;24.872;2023-04-08T04:21:09;99237.00;;;9.10;66.41
8573;BME280;4324;42.012;24.872;2023-04-08T04:23:36;99223.84;;;9.01;66.46
8573;BME280;4324;42.012;24.872;2023-04-08T04:26:07;99225.69;;;9.00;66.27
8573;BME280;4324;42.012;24.872;2023-04-08T04:28:34;99213.63;;;8.98;66.27
8573;BME280;4324;42.012;24.872;2023-04-08T04:31:01;99154.69;;;8.61;66.07
8573;BME280;4324;42.012;24.872;2023-04-08T04:33:29;99250.16;;;9.20;66.27
8573;BME280;4324;42.012;24.872;2023-04-08T04:35:56;99241.38;;;9.19;66.30
8573;BME280;4324;42.012;24.872;2023-04-08T04:38:23;99238.06;;;9.17;66.42
8573;BME280;4324;42.012;24.872;2023-04-08T04:40:50;99230.72;;;9.11;66.05
8573;BME280;4324;42.012;24.872;2023-04-08T04:43:16;99246.22;;;9.24;66.22
8573;BME280;4324;42.012;24.872;2023-04-08T04:45:43;99225.44;;;9.11;66.25
8573;BME280;4324;42.012;24.872;2023-04-08T04:48:11;99229.78;;;9.12;66.48
8573;BME280;4324;42.012;24.872;2023-04-08T04:50:39;99246.16;;;9.16;66.66
8573;BME280;4324;42.012;24.872;2023-04-08T04:53:05;99207.13;;;8.92;66.84
8573;BME280;4324;42.012;24.872;2023-04-08T04:55:32;99245.75;;;9.11;66.92
8573;BME280;4324;42.012;24.872;2023-04-08T04:57:59;99257.16;;;9.11;66.94
8573;BME280;4324;42.012;24.872;2023-04-08T05:00:26;99240.22;;;9.04;67.20
8573;BME280;4324;42.012;24.872;2023-04-08T05:02:53;99255.78;;;9.07;67.68
8573;BME280;4324;42.012;24.872;2023-04-08T05:05:20;99252.69;;;9.12;67.87
8573;BME280;4324;42.012;24.872;2023-04-08T05:07:48;99258.22;;;9.18;68.18
8573;BME280;4324;42.012;24.872;2023-04-08T05:10:15;99259.28;;;9.26;68.17
8573;BME280;4324;42.012;24.872;2023-04-08T05:12:42;99253.69;;;9.29;68.45
8573;BME280;4324;42.012;24.872;2023-04-08T05:15:10;99226.50;;;9.18;68.47
8573;BME280;4324;42.012;24.872;2023-04-08T05:17:37;99245.00;;;9.36;68.52
8573;BME280;4324;42.012;24.872;2023-04-08T05:20:04;99254.81;;;9.44;68.59
8573;BME280;4324;42.012;24.872;2023-04-08T05:22:31;99254.50;;;9.47;68.81
8573;BME280;4324;42.012;24.872;2023-04-08T05:25:00;99235.19;;;9.29;68.96
8573;BME280;4324;42.012;24.872;2023-04-08T05:27:27;99265.00;;;9.39;69.08
8573;BME280;4324;42.012;24.872;2023-04-08T05:29:54;99260.31;;;9.33;69.54
8573;BME280;4324;42.012;24.872;2023-04-08T05:32:21;99254.22;;;9.32;69.60
8573;BME280;4324;42.012;24.872;2023-04-08T05:34:47;99275.81;;;9.45;69.91
8573;BME280;4324;42.012;24.872;2023-04-08T05:37:14;99252.16;;;9.44;69.77
8573;BME280;4324;42.012;24.872;2023-04-08T05:39:42;99231.47;;;9.39;69.99
8573;BME280;4324;42.012;24.872;2023-04-08T05:42:10;99272.75;;;9.76;69.86
8573;BME280;4324;42.012;24.872;2023-04-08T05:44:38;99207.41;;;9.42;69.78
8573;BME280;4324;42.012;24.872;2023-04-08T05:47:05;99272.28;;;9.81;69.98
8573;BME280;4324;42.012;24.872;2023-04-08T05:49:32;99278.91;;;9.85;70.09
8573;BME280;4324;42.012;24.872;2023-04-08T05:52:00;99241.09;;;9.66;70.19
8573;BME280;4324;42.012;24.872;2023-04-08T05:54:28;99259.22;;;9.79;70.50
8573;BME280;4324;42.012;24.872;2023-04-08T05:56:55;99268.56;;;9.91;70.52
8573;BME280;4324;42.012;24.872;2023-04-08T05:59:23;99248.16;;;9.84;70.47
8573;BME280;4324;42.012;24.872;2023-04-08T06:01:50;99273.59;;;10.03;70.31
8573;BME280;4324;42.012;24.872;2023-04-08T06:04:17;99260.00;;;9.98;70.20
8573;BME280;4324;42.012;24.872;2023-04-08T06:06:44;99193.16;;;9.61;70.42
8573;BME280;4324;42.012;24.872;2023-04-08T06:09:11;99272.84;;;10.18;70.14
8573;BME280;4324;42.012;24.872;2023-04-08T06:11:38;99270.50;;;10.15;70.48
8573;BME280;4324;42.012;24.872;2023-04-08T06:14:05;99272.38;;;10.23;70.51
8573;BME280;4324;42.012;24.872;2023-04-08T06:16:33;99283.56;;;10.35;70.55
8573;BME280;4324;42.012;24.872;2023-04-08T06:18:59;99270.66;;;10.32;70.73
8573;BME280;4324;42.012;24.872;2023-04-08T06:21:26;99278.28;;;10.35;70.56
8573;BME280;4324;42.012;24.872;2023-04-08T06:23:53;99271.66;;;10.31;70.74
8573;BME280;4324;42.012;24.872;2023-04-08T06:26:20;99286.78;;;10.47;70.85
8573;BME280;4324;42.012;24.872;2023-04-08T06:28:47;99278.97;;;10.45;71.04
8573;BME280;4324;42.012;24.872;2023-04-08T06:31:14;99226.56;;;10.23;70.95
8573;BME280;4324;42.012;24.872;2023-04-08T06:33:42;99266.16;;;10.66;70.89
8573;BME280;4324;42.012;24.872;2023-04-08T06:36:09;99253.91;;;10.65;70.85
8573;BME280;4324;42.012;24.872;2023-04-08T06:38:37;99272.81;;;10.79;70.67
8573;BME280;4324;42.012;24.872;2023-04-08T06:41:05;99267.19;;;10.82;70.68
8573;BME280;4324;42.012;24.872;2023-04-08T06:43:33;99277.50;;;10.93;70.56
8573;BME280;4324;42.012;24.872;2023-04-08T06:46:02;99273.06;;;11.10;70.45
8573;BME280;4324;42.012;24.872;2023-04-08T06:48:29;99241.22;;;10.94;70.06
8573;BME280;4324;42.012;24.872;2023-04-08T06:50:58;99282.88;;;11.26;70.11
8573;BME280;4324;42.012;24.872;2023-04-08T06:53:26;99289.50;;;11.30;70.06
8573;BME280;4324;42.012;24.872;2023-04-08T06:55:54;99281.22;;;11.25;69.98
8573;BME280;4324;42.012;24.872;2023-04-08T06:58:21;99293.97;;;11.37;70.23
8573;BME280;4324;42.012;24.872;2023-04-08T07:00:48;99263.34;;;11.35;70.04
8573;BME280;4324;42.012;24.872;2023-04-08T07:03:15;99191.38;;;10.97;69.63
8573;BME280;4324;42.012;24.872;2023-04-08T07:05:42;99268.31;;;11.46;69.30
8573;BME280;4324;42.012;24.872;2023-04-08T07:08:10;99283.22;;;11.47;69.59
8573;BME280;4324;42.012;24.872;2023-04-08T07:10:37;99240.13;;;11.12;69.72
8573;BME280;4324;42.012;24.872;2023-04-08T07:13:04;99279.25;;;11.43;69.71
8573;BME280;4324;42.012;24.872;2023-04-08T07:15:31;99280.25;;;11.42;69.43
8573;BME280;4324;42.012;24.872;2023-04-08T07:17:58;99276.25;;;11.30;69.56
8573;BME280;4324;42.012;24.872;2023-04-08T07:20:25;99281.72;;;11.28;69.71
8573;BME280;4324;42.012;24.872;2023-04-08T07:22:52;99277.38;;;11.19;69.70
8573;BME280;4324;42.012;24.872;2023-04-08T07:25:20;99280.22;;;11.34;69.90
8573;BME280;4324;42.012;24.872;2023-04-08T07:27:47;99292.69;;;11.66;69.65
8573;BME280;4324;42.012;24.872;2023-04-08T07:30:14;99287.56;;;11.89;69.22
8573;BME280;4324;42.012;24.872;2023-04-08T07:32:41;99265.66;;;12.03;68.74
8573;BME280;4324;42.012;24.872;2023-04-08T07:35:08;99286.28;;;12.41;68.63
8573;BME280;4324;42.012;24.872;2023-04-08T07:37:35;99282.38;;;12.68;67.85
8573;BME280;4324;42.012;24.872;2023-04-08T07:40:02;99278.16;;;12.81;67.40
8573;BME280;4324;42.012;24.872;2023-04-08T07:42:31;99279.34;;;12.79;67.15
8573;BME280;4324;42.012;24.872;2023-04-08T07:44:57;99278.34;;;12.80;66.89
8573;BME280;4324;42.012;24.872;2023-04-08T07:47:24;99281.66;;;12.82;67.06
8573;BME280;4324;42.012;24.872;2023-04-08T07:49:51;99286.75;;;12.92;66.92
8573;BME280;4324;42.012;24.872;2023-04-08T07:52:19;99274.59;;;12.97;67.05
8573;BME280;4324;42.012;24.872;2023-04-08T07:54:45;99271.06;;;13.05;66.75
8573;BME280;4324;42.012;24.872;2023-04-08T07:57:12;99219.56;;;12.75;66.49
8573;BME280;4324;42.012;24.872;2023-04-08T07:59:41;99235.72;;;12.96;66.32
8573;BME280;4324;42.012;24.872;2023-04-08T08:02:08;99285.13;;;13.45;65.96
8573;BME280;4324;42.012;24.872;2023-04-08T08:04:35;99293.22;;;13.51;65.78
8573;BME280;4324;42.012;24.872;2023-04-08T08:07:01;99284.59;;;13.49;65.69
8573;BME280;4324;42.012;24.872;2023-04-08T08:09:28;99260.44;;;13.36;65.71
8573;BME280;4324;42.012;24.872;2023-04-08T08:11:55;99281.97;;;13.64;65.44
8573;BME280;4324;42.012;24.872;2023-04-08T08:14:22;99277.00;;;13.84;64.87
8573;BME280;4324;42.012;24.872;2023-04-08T08:16:52;99222.50;;;13.57;64.77
8573;BME280;4324;42.012;24.872;2023-04-08T08:19:21;99271.34;;;14.02;64.70
8573;BME280;4324;42.012;24.872;2023-04-08T08:21:48;99269.63;;;14.09;64.15
8573;BME280;4324;42.012;24.872;2023-04-08T08:24:16;99271.72;;;14.14;64.06
8573;BME280;4324;42.012;24.872;2023-04-08T08:26:43;99270.16;;;14.19;64.18
8573;BME280;4324;42.012;24.872;2023-04-08T08:29:11;99253.09;;;14.14;63.63
8573;BME280;4324;42.012;24.872;2023-04-08T08:31:38;99247.91;;;14.12;63.38
8573;BME280;4324;42.012;24.872;2023-04-08T08:34:06;99271.91;;;14.27;62.90
8573;BME280;4324;42.012;24.872;2023-04-08T08:36:33;99271.28;;;14.25;62.90
8573;BME280;4324;42.012;24.872;2023-04-08T08:39:01;99258.88;;;14.17;62.28
8573;BME280;4324;42.012;24.872;2023-04-08T08:41:32;99265.47;;;14.07;61.76
8573;BME280;4324;42.012;24.872;2023-04-08T08:43:59;99260.94;;;13.92;61.90
8573;BME280;4324;42.012;24.872;2023-04-08T08:46:28;99270.59;;;13.93;61.75
8573;BME280;4324;42.012;24.872;2023-04-08T08:48:56;99269.59;;;13.94;61.42
8573;BME280;4324;42.012;24.872;2023-04-08T08:51:24;99245.63;;;13.94;61.35
8573;BME280;4324;42.012;24.872;2023-04-08T08:53:53;99250.13;;;14.09;61.33
8573;BME280;4324;42.012;24.872;2023-04-08T08:56:20;99264.47;;;14.22;61.12
8573;BME280;4324;42.012;24.872;2023-04-08T08:58:47;99273.28;;;14.23;60.64
8573;BME280;4324;42.012;24.872;2023-04-08T09:01:34;99259.69;;;14.03;60.69
8573;BME280;4324;42.012;24.872;2023-04-08T09:04:10;99263.25;;;13.95;61.09
8573;BME280;4324;42.012;24.872;2023-04-08T09:06:39;99266.19;;;14.00;61.41
8573;BME280;4324;42.012;24.872;2023-04-08T09:09:06;99254.25;;;13.96;61.27
8573;BME280;4324;42.012;24.872;2023-04-08T09:11:36;99248.00;;;13.89;61.27
8573;BME280;4324;42.012;24.872;2023-04-08T09:14:04;99253.97;;;13.91;61.11
8573;BME280;4324;42.012;24.872;2023-04-08T09:16:32;99250.03;;;13.87;61.36
8573;BME280;4324;42.012;24.872;2023-04-08T09:19:09;99230.38;;;13.88;61.42
8573;BME280;4324;42.012;24.872;2023-04-08T09:21:37;99226.34;;;13.92;61.48
8573;BME280;4324;42.012;24.872;2023-04-08T09:24:07;99270.72;;;14.29;61.28
8573;BME280;4324;42.012;24.872;2023-04-08T09:26:35;99274.41;;;14.43;61.28
8573;BME280;4324;42.012;24.872;2023-04-08T09:29:03;99252.44;;;14.41;61.22
8573;BME280;4324;42.012;24.872;2023-04-08T09:31:32;99260.53;;;14.63;61.02
8573;BME280;4324;42.012;24.872;2023-04-08T09:34:08;99256.94;;;14.70;60.61
8573;BME280;4324;42.012;24.872;2023-04-08T09:36:36;99252.31;;;14.79;60.85
8573;BME280;4324;42.012;24.872;2023-04-08T09:39:03;99257.03;;;14.77;61.05
8573;BME280;4324;42.012;24.872;2023-04-08T09:41:34;99239.16;;;14.92;61.54
8573;BME280;4324;42.012;24.872;2023-04-08T09:44:03;99236.53;;;15.14;61.40
8573;BME280;4324;42.012;24.872;2023-04-08T09:46:33;99227.66;;;15.35;60.75
8573;BME280;4324;42.012;24.872;2023-04-08T09:49:11;99242.84;;;15.56;60.49
8573;BME280;4324;42.012;24.872;2023-04-08T09:51:41;99225.34;;;15.46;60.76
8573;BME280;4324;42.012;24.872;2023-04-08T09:54:13;99239.56;;;15.54;60.76
8573;BME280;4324;42.012;24.872;2023-04-08T09:56:45;99238.53;;;15.55;60.33
8573;BME280;4324;42.012;24.872;2023-04-08T09:59:14;99248.72;;;15.66;60.06
8573;BME280;4324;42.012;24.872;2023-04-08T10:01:48;99240.19;;;15.77;59.83
8573;BME280;4324;42.012;24.872;2023-04-08T10:04:18;99244.22;;;15.94;59.89
8573;BME280;4324;42.012;24.872;2023-04-08T10:06:48;99243.06;;;16.04;59.47
8573;BME280;4324;42.012;24.872;2023-04-08T10:09:19;99217.94;;;15.98;59.07
8573;BME280;4324;42.012;24.872;2023-04-08T10:11:48;99222.66;;;16.31;58.59
8573;BME280;4324;42.012;24.872;2023-04-08T10:14:15;99234.94;;;16.60;58.33
8573;BME280;4324;42.012;24.872;2023-04-08T10:16:43;99223.03;;;16.62;57.98
8573;BME280;4324;42.012;24.872;2023-04-08T10:19:35;99236.00;;;16.72;58.07
8573;BME280;4324;42.012;24.872;2023-04-08T10:22:03;99224.44;;;16.58;57.34
8573;BME280;4324;42.012;24.872;2023-04-08T10:24:30;99237.84;;;16.65;57.62
8573;BME280;4324;42.012;24.872;2023-04-08T10:26:58;99201.53;;;16.36;57.76
8573;BME280;4324;42.012;24.872;2023-04-08T10:29:35;99230.97;;;16.49;57.82
8573;BME280;4324;42.012;24.872;2023-04-08T10:32:02;99235.88;;;16.45;57.21
8573;BME280;4324;42.012;24.872;2023-04-08T10:34:29;99218.56;;;16.28;56.85
8573;BME280;4324;42.012;24.872;2023-04-08T10:36:57;99221.84;;;16.30;56.68
8573;BME280;4324;42.012;24.872;2023-04-08T10:39:29;99225.59;;;16.42;56.88
8573;BME280;4324;42.012;24.872;2023-04-08T10:42:00;99224.81;;;16.49;56.97
8573;BME280;4324;42.012;24.872;2023-04-08T10:44:27;99208.75;;;16.49;56.62
8573;BME280;4324;42.012;24.872;2023-04-08T10:46:54;99199.88;;;16.41;56.23
8573;BME280;4324;42.012;24.872;2023-04-08T10:49:21;99199.97;;;16.55;56.26
8573;BME280;4324;42.012;24.872;2023-04-08T10:51:48;99215.72;;;16.84;56.27
8573;BME280;4324;42.012;24.872;2023-04-08T10:54:16;99208.16;;;16.95;56.30
8573;BME280;4324;42.012;24.872;2023-04-08T10:56:44;99190.41;;;16.80;55.59
8573;BME280;4324;42.012;24.872;2023-04-08T10:59:14;99195.97;;;16.85;55.75
8573;BME280;4324;42.012;24.872;2023-04-08T11:01:43;99194.13;;;16.86;55.87
8573;BME280;4324;42.012;24.872;2023-04-08T11:04:12;99211.25;;;17.05;55.72
8573;BME280;4324;42.012;24.872;2023-04-08T11:06:41;99204.88;;;17.06;55.66
8573;BME280;4324;42.012;24.872;2023-04-08T11:09:08;99195.41;;;17.03;55.44
8573;BME280;4324;42.012;24.872;2023-04-08T11:11:35;99199.72;;;17.11;55.05
8573;BME280;4324;42.012;24.872;2023-04-08T11:14:03;99177.28;;;16.99;54.92
8573;BME280;4324;42.012;24.872;2023-04-08T11:16:31;99180.59;;;17.14;55.07
8573;BME280;4324;42.012;24.872;2023-04-08T11:19:01;99176.69;;;17.23;54.79
8573;BME280;4324;42.012;24.872;2023-04-08T11:21:29;99157.13;;;17.23;54.54
8573;BME280;4324;42.012;24.872;2023-04-08T11:23:56;99188.84;;;17.32;54.97
8573;BME280;4324;42.012;24.872;2023-04-08T11:26:24;99176.91;;;17.22;55.01
8573;BME280;4324;42.012;24.872;2023-04-08T11:28:52;99160.00;;;17.14;55.24
8573;BME280;4324;42.012;24.872;2023-04-08T11:31:20;99174.44;;;17.33;54.98
8573;BME280;4324;42.012;24.872;2023-04-08T11:33:52;99170.31;;;17.51;54.62
8573;BME280;4324;42.012;24.872;2023-04-08T11:36:20;99166.41;;;17.60;54.11
8573;BME280;4324;42.012;24.872;2023-04-08T11:38:47;99172.97;;;17.64;54.42
8573;BME280;4324;42.012;24.872;2023-04-08T11:41:14;99149.09;;;17.62;54.87
8573;BME280;4324;42.012;24.872;2023-04-08T11:43:52;99159.63;;;17.77;54.66
8573;BME280;4324;42.012;24.872;2023-04-08T11:46:19;99153.63;;;17.88;54.50
8573;BME280;4324;42.012;24.872;2023-04-08T11:49:01;99149.06;;;17.96;54.26
8573;BME280;4324;42.012;24.872;2023-04-08T11:51:28;99148.03;;;17.97;54.17
8573;BME280;4324;42.012;24.872;2023-04-08T11:53:55;99126.63;;;17.83;54.41
8573;BME280;4324;42.012;24.872;2023-04-08T11:56:23;99127.88;;;17.81;54.43
8573;BME280;4324;42.012;24.872;2023-04-08T11:58:50;99133.19;;;17.94;53.95
8573;BME280;4324;42.012;24.872;2023-04-08T12:01:18;99128.22;;;17.98;53.83
8573;BME280;4324;42.012;24.872;2023-04-08T12:03:56;99132.34;;;18.07;53.87
8573;BME280;4324;42.012;24.872;2023-04-08T12:06:24;99130.66;;;18.12;53.62
8573;BME280;4324;42.012;24.872;2023-04-08T12:08:54;99109.72;;;17.89;54.00
8573;BME280;4324;42.012;24.872;2023-04-08T12:11:21;99125.78;;;17.89;53.96
8573;BME280;4324;42.012;24.872;2023-04-08T12:13:48;99128.28;;;17.71;53.86
8573;BME280;4324;42.012;24.872;2023-04-08T12:16:17;99122.75;;;17.53;54.07
8573;BME280;4324;42.012;24.872;2023-04-08T12:18:45;99117.59;;;17.45;53.84
8573;BME280;4324;42.012;24.872;2023-04-08T12:21:12;99118.84;;;17.35;53.87
8573;BME280;4324;42.012;24.872;2023-04-08T12:23:40;99116.78;;;17.31;54.19
8573;BME280;4324;42.012;24.872;2023-04-08T12:26:08;99107.13;;;17.36;54.19
8573;BME280;4324;42.012;24.872;2023-04-08T12:28:34;99100.91;;;17.42;53.97
8573;BME280;4324;42.012;24.872;2023-04-08T12:31:02;99070.88;;;17.27;54.03
8573;BME280;4324;42.012;24.872;2023-04-08T12:33:28;99108.13;;;17.62;53.84
8573;BME280;4324;42.012;24.872;2023-04-08T12:35:56;99102.75;;;17.62;53.61
8573;BME280;4324;42.012;24.872;2023-04-08T12:38:24;99102.97;;;17.54;53.49
8573;BME280;4324;42.012;24.872;2023-04-08T12:40:53;99089.19;;;17.37;54.01
8573;BME280;4324;42.012;24.872;2023-04-08T12:43:21;99086.34;;;17.32;54.41
8573;BME280;4324;42.012;24.872;2023-04-08T12:45:48;99087.97;;;17.39;54.34
8573;BME280;4324;42.012;24.872;2023-04-08T12:48:15;99082.41;;;17.41;54.45
8573;BME280;4324;42.012;24.872;2023-04-08T12:50:42;99083.22;;;17.35;54.42
8573;BME280;4324;42.012;24.872;2023-04-08T12:53:09;99067.19;;;17.15;54.54
8573;BME280;4324;42.012;24.872;2023-04-08T12:55:36;99061.22;;;17.00;54.60
8573;BME280;4324;42.012;24.872;2023-04-08T12:58:04;99085.50;;;17.18;54.58
8573;BME280;4324;42.012;24.872;2023-04-08T13:00:31;99065.34;;;17.15;54.71
8573;BME280;4324;42.012;24.872;2023-04-08T13:02:58;99065.31;;;17.09;54.81
8573;BME280;4324;42.012;24.872;2023-04-08T13:05:25;99079.16;;;17.06;55.08
8573;BME280;4324;42.012;24.872;2023-04-08T13:07:52;99083.44;;;16.80;55.32
8573;BME280;4324;42.012;24.872;2023-04-08T13:10:19;99071.38;;;16.30;55.60
8573;BME280;4324;42.012;24.872;2023-04-08T13:12:46;99076.25;;;16.06;56.25
8573;BME280;4324;42.012;24.872;2023-04-08T13:15:14;99083.91;;;15.81;56.62
8573;BME280;4324;42.012;24.872;2023-04-08T13:17:42;99082.50;;;15.51;56.96
8573;BME280;4324;42.012;24.872;2023-04-08T13:20:10;99076.19;;;15.30;57.62